sensor_id;sensor_type;location;lat;lon;timestamp;temperature;humidity
22288;DHT22;11312;51.464;6.968;2024-03-22T00:01:11;11.10;99.90
22288;DHT22;11312;51.464;6.968;2024-03-22T00:03:36;11.10;99.90
22288;DHT22;11312;51.464;6.968;2024-03-22T00:06:02;11.10;99.90
22288;DHT22;11312;51.464;6.968;2024-03-22T00:08:28;11.10;99.90
22288;DHT22;11312;51.464;6.968;2024-03-22T00:10:53;11.10;99.90
22288;DHT22;11312;51.464;6.968;2024-03-22T00:13:19;11.10;99.90
22288;DHT22;11312;51.464;6.968;2024-03-22T00:15:45;11.10;99.90
22288;DHT22;11312;51.464;6.968;2024-03-22T00:18:11;11.20;99.90
22288;DHT22;11312;51.464;6.968;2024-03-22T00:20:36;11.20;99.90
22288;DHT22;11312;51.464;6.968;2024-03-22T00:23:02;11.30;99.90
22288;DHT22;11312;51.464;6.968;2024-03-22T00:25:28;11.30;99.90
22288;DHT22;11312;51.464;6.968;2024-03-22T00:27:55;11.20;99.90
22288;DHT22;11312;51.464;6.968;2024-03-22T00:30:20;11.20;99.90
22288;DHT22;11312;51.464;6.968;2024-03-22T00:32:49;11.20;99.90
22288;DHT22;11312;51.464;6.968;2024-03-22T00:35:14;11.20;99.90
22288;DHT22;11312;51.464;6.968;2024-03-22T00:37:40;11.30;99.90
22288;DHT22;11312;51.464;6.968;2024-03-22T00:40:06;11.30;99.90
22288;DHT22;11312;51.464;6.968;2024-03-22T00:42:32;11.30;99.90
22288;DHT22;11312;51.464;6.968;2024-03-22T00:44:58;11.30;99.90
22288;DHT22;11312;51.464;6.968;2024-03-22T00:47:24;11.30;99.90
22288;DHT22;11312;51.464;6.968;2024-03-22T00:49:49;11.20;99.90
22288;DHT22;11312;51.464;6.968;2024-03-22T00:52:15;11.30;99.90
22288;DHT22;11312;51.464;6.968;2024-03-22T00:54:42;11.30;99.90
22288;DHT22;11312;51.464;6.968;2024-03-22T00:57:08;11.30;99.90
22288;DHT22;11312;51.464;6.968;2024-03-22T00:59:37;11.30;99.90
22288;DHT22;11312;51.464;6.968;2024-03-22T01:02:03;11.30;99.90
22288;DHT22;11312;51.464;6.968;2024-03-22T01:04:29;11.30;99.90
22288;DHT22;11312;51.464;6.968;2024-03-22T01:06:54;11.30;99.90
22288;DHT22;11312;51.464;6.968;2024-03-22T01:09:20;11.30;99.90
22288;DHT22;11312;51.464;6.968;2024-03-22T01:11:46;11.30;99.90
22288;DHT22;11312;51.464;6.968;2024-03-22T01:14:11;11.30;99.90
22288;DHT22;11312;51.464;6.968;2024-03-22T01:16:37;11.30;99.90
22288;DHT22;11312;51.464;6.968;2024-03-22T01:19:02;11.30;99.90
22288;DHT22;11312;51.464;6.968;2024-03-22T01:21:29;11.30;99.90
22288;DHT22;11312;51.464;6.968;2024-03-22T01:23:54;11.30;99.90
22288;DHT22;11312;51.464;6.968;2024-03-22T01:26:20;11.30;99.90
22288;DHT22;11312;51.464;6.968;2024-03-22T01:28:46;11.30;99.90
22288;DHT22;11312;51.464;6.968;2024-03-22T01:31:12;11.30;99.90
22288;DHT22;11312;51.464;6.968;2024-03-22T01:33:39;11.30;99.90
22288;DHT22;11312;51.464;6.968;2024-03-22T01:36:06;11.30;99.90
22288;DHT22;11312;51.464;6.968;2024-03-22T01:38:32;11.30;99.90
22288;DHT22;11312;51.464;6.968;2024-03-22T01:40:57;11.30;99.90
22288;DHT22;11312;51.464;6.968;2024-03-22T01:43:23;11.30;99.90
22288;DHT22;11312;51.464;6.968;2024-03-22T01:45:48;11.30;99.90
22288;DHT22;11312;51.464;6.968;2024-03-22T01:48:14;11.40;99.90
22288;DHT22;11312;51.464;6.968;2024-03-22T01:50:41;11.30;99.90
22288;DHT22;11312;51.464;6.968;2024-03-22T01:53:08;11.40;99.90
22288;DHT22;11312;51.464;6.968;2024-03-22T01:55:34;11.30;99.90
22288;DHT22;11312;51.464;6.968;2024-03-22T01:58:00;11.40;99.90
22288;DHT22;11312;51.464;6.968;2024-03-22T02:00:26;11.40;99.90
22288;DHT22;11312;51.464;6.968;2024-03-22T02:02:51;11.40;99.90
22288;DHT22;11312;51.464;6.968;2024-03-22T02:05:18;11.40;99.90
22288;DHT22;11312;51.464;6.968;2024-03-22T02:07:47;11.40;99.90
22288;DHT22;11312;51.464;6.968;2024-03-22T02:10:13;11.50;99.90
22288;DHT22;11312;51.464;6.968;2024-03-22T02:12:40;11.50;99.90
22288;DHT22;11312;51.464;6.968;2024-03-22T02:15:06;11.50;99.90
22288;DHT22;11312;51.464;6.968;2024-03-22T02:17:34;11.50;99.90
22288;DHT22;11312;51.464;6.968;2024-03-22T02:20:00;11.60;99.90
22288;DHT22;11312;51.464;6.968;2024-03-22T02:22:26;11.60;99.90
22288;DHT22;11312;51.464;6.968;2024-03-22T02:24:53;11.50;99.90
22288;DHT22;11312;51.464;6.968;2024-03-22T02:27:19;11.50;99.90
22288;DHT22;11312;51.464;6.968;2024-03-22T02:29:45;11.50;99.90
22288;DHT22;11312;51.464;6.968;2024-03-22T02:32:12;11.50;99.90
22288;DHT22;11312;51.464;6.968;2024-03-22T02:34:37;11.60;99.90
22288;DHT22;11312;51.464;6.968;2024-03-22T02:37:03;11.60;99.90
22288;DHT22;11312;51.464;6.968;2024-03-22T02:39:29;11.60;99.90
22288;DHT22;11312;51.464;6.968;2024-03-22T02:41:55;11.70;99.90
22288;DHT22;11312;51.464;6.968;2024-03-22T02:44:21;11.70;99.90
22288;DHT22;11312;51.464;6.968;2024-03-22T02:46:46;11.70;99.90
22288;DHT22;11312;51.464;6.968;2024-03-22T02:49:13;11.70;99.90
22288;DHT22;11312;51.464;6.968;2024-03-22T02:51:38;11.70;99.90
22288;DHT22;11312;51.464;6.968;2024-03-22T02:54:04;11.70;99.90
22288;DHT22;11312;51.464;6.968;2024-03-22T02:56:30;11.80;99.90
22288;DHT22;11312;51.464;6.968;2024-03-22T02:58:55;11.70;99.90
22288;DHT22;11312;51.464;6.968;2024-03-22T03:01:21;11.80;99.90
22288;DHT22;11312;51.464;6.968;2024-03-22T03:03:46;11.70;99.90
22288;DHT22;11312;51.464;6.968;2024-03-22T03:06:12;11.70;99.90
22288;DHT22;11312;51.464;6.968;2024-03-22T03:08:39;11.70;99.90
22288;DHT22;11312;51.464;6.968;2024-03-22T03:11:04;11.70;99.90
22288;DHT22;11312;51.464;6.968;2024-03-22T03:13:30;11.70;99.90
22288;DHT22;11312;51.464;6.968;2024-03-22T03:15:57;11.70;99.90
22288;DHT22;11312;51.464;6.968;2024-03-22T03:18:23;11.70;99.90
22288;DHT22;11312;51.464;6.968;2024-03-22T03:20:48;11.70;99.90
22288;DHT22;11312;51.464;6.968;2024-03-22T03:23:14;11.70;99.90
22288;DHT22;11312;51.464;6.968;2024-03-22T03:25:40;11.60;99.90
22288;DHT22;11312;51.464;6.968;2024-03-22T03:28:05;11.60;99.90
22288;DHT22;11312;51.464;6.968;2024-03-22T03:30:34;11.50;99.90
22288;DHT22;11312;51.464;6.968;2024-03-22T03:33:00;11.50;99.90
22288;DHT22;11312;51.464;6.968;2024-03-22T03:35:26;11.50;99.90
22288;DHT22;11312;51.464;6.968;2024-03-22T03:37:52;11.40;99.90
22288;DHT22;11312;51.464;6.968;2024-03-22T03:40:18;11.40;99.90
22288;DHT22;11312;51.464;6.968;2024-03-22T03:42:43;11.30;99.90
22288;DHT22;11312;51.464;6.968;2024-03-22T03:45:09;11.30;99.90
22288;DHT22;11312;51.464;6.968;2024-03-22T03:47:35;11.30;99.90
22288;DHT22;11312;51.464;6.968;2024-03-22T03:50:01;11.30;99.90
22288;DHT22;11312;51.464;6.968;2024-03-22T03:52:28;11.30;99.90
22288;DHT22;11312;51.464;6.968;2024-03-22T03:54:54;11.30;99.90
22288;DHT22;11312;51.464;6.968;2024-03-22T03:57:19;11.30;99.90
22288;DHT22;11312;51.464;6.968;2024-03-22T03:59:45;11.30;99.90
22288;DHT22;11312;51.464;6.968;2024-03-22T04:02:11;11.40;99.90
22288;DHT22;11312;51.464;6.968;2024-03-22T04:04:37;11.30;99.90
22288;DHT22;11312;51.464;6.968;2024-03-22T04:07:02;11.30;99.90
22288;DHT22;11312;51.464;6.968;2024-03-22T04:09:28;11.30;99.90
22288;DHT22;11312;51.464;6.968;2024-03-22T04:11:54;11.30;99.90
22288;DHT22;11312;51.464;6.968;2024-03-22T04:14:20;11.30;99.90
22288;DHT22;11312;51.464;6.968;2024-03-22T04:16:46;11.40;99.90
22288;DHT22;11312;51.464;6.968;2024-03-22T04:19:13;11.30;99.90
22288;DHT22;11312;51.464;6.968;2024-03-22T04:21:39;11.30;99.90
22288;DHT22;11312;51.464;6.968;2024-03-22T04:24:04;11.30;99.90
22288;DHT22;11312;51.464;6.968;2024-03-22T04:26:30;11.20;99.90
22288;DHT22;11312;51.464;6.968;2024-03-22T04:28:55;11.30;99.90
22288;DHT22;11312;51.464;6.968;2024-03-22T04:31:21;11.20;99.90
22288;DHT22;11312;51.464;6.968;2024-03-22T04:33:47;11.20;99.90
22288;DHT22;11312;51.464;6.968;2024-03-22T04:36:12;11.20;99.90
22288;DHT22;11312;51.464;6.968;2024-03-22T04:38:38;11.20;99.90
22288;DHT22;11312;51.464;6.968;2024-03-22T04:41:04;11.20;99.90
22288;DHT22;11312;51.464;6.968;2024-03-22T04:43:29;11.30;99.90
22288;DHT22;11312;51.464;6.968;2024-03-22T04:45:57;11.20;99.90
22288;DHT22;11312;51.464;6.968;2024-03-22T04:48:23;11.20;99.90
22288;DHT22;11312;51.464;6.968;2024-03-22T04:50:52;11.20;99.90
22288;DHT22;11312;51.464;6.968;2024-03-22T04:53:19;11.20;99.90
22288;DHT22;11312;51.464;6.968;2024-03-22T04:55:48;11.20;99.90
22288;DHT22;11312;51.464;6.968;2024-03-22T04:58:17;11.20;99.90
22288;DHT22;11312;51.464;6.968;2024-03-22T05:00:43;11.20;99.90
22288;DHT22;11312;51.464;6.968;2024-03-22T05:03:09;11.20;99.90
22288;DHT22;11312;51.464;6.968;2024-03-22T05:05:35;11.30;99.90
22288;DHT22;11312;51.464;6.968;2024-03-22T05:08:01;11.30;99.90
22288;DHT22;11312;51.464;6.968;2024-03-22T05:10:27;11.30;99.90
22288;DHT22;11312;51.464;6.968;2024-03-22T05:12:55;11.30;99.90
22288;DHT22;11312;51.464;6.968;2024-03-22T05:15:20;11.30;99.90
22288;DHT22;11312;51.464;6.968;2024-03-22T05:17:46;11.30;99.90
22288;DHT22;11312;51.464;6.968;2024-03-22T05:20:12;11.30;99.90
22288;DHT22;11312;51.464;6.968;2024-03-22T05:22:39;11.40;99.90
22288;DHT22;11312;51.464;6.968;2024-03-22T05:25:05;11.30;99.90
22288;DHT22;11312;51.464;6.968;2024-03-22T05:27:32;11.40;99.90
22288;DHT22;11312;51.464;6.968;2024-03-22T05:29:58;11.30;99.90
22288;DHT22;11312;51.464;6.968;2024-03-22T05:32:25;11.30;99.90
22288;DHT22;11312;51.464;6.968;2024-03-22T05:34:51;11.30;99.90
22288;DHT22;11312;51.464;6.968;2024-03-22T05:37:16;11.30;99.90
22288;DHT22;11312;51.464;6.968;2024-03-22T05:39:42;11.40;99.90
22288;DHT22;11312;51.464;6.968;2024-03-22T05:42:08;11.40;99.90
22288;DHT22;11312;51.464;6.968;2024-03-22T05:44:34;11.40;99.90
22288;DHT22;11312;51.464;6.968;2024-03-22T05:47:00;11.40;99.90
22288;DHT22;11312;51.464;6.968;2024-03-22T05:49:26;11.40;99.90
22288;DHT22;11312;51.464;6.968;2024-03-22T05:51:52;11.40;99.90
22288;DHT22;11312;51.464;6.968;2024-03-22T05:54:17;11.40;99.90
22288;DHT22;11312;51.464;6.968;2024-03-22T05:56:43;11.40;99.90
22288;DHT22;11312;51.464;6.968;2024-03-22T05:59:10;11.40;99.90
22288;DHT22;11312;51.464;6.968;2024-03-22T06:01:36;11.40;99.90
22288;DHT22;11312;51.464;6.968;2024-03-22T06:04:03;11.40;99.90
22288;DHT22;11312;51.464;6.968;2024-03-22T06:06:29;11.50;99.90
22288;DHT22;11312;51.464;6.968;2024-03-22T06:08:55;11.50;99.90
22288;DHT22;11312;51.464;6.968;2024-03-22T06:11:22;11.50;99.90
22288;DHT22;11312;51.464;6.968;2024-03-22T06:13:48;11.50;99.90
22288;DHT22;11312;51.464;6.968;2024-03-22T06:16:17;11.50;99.90
22288;DHT22;11312;51.464;6.968;2024-03-22T06:18:43;11.60;99.90
22288;DHT22;11312;51.464;6.968;2024-03-22T06:21:08;11.60;99.90
22288;DHT22;11312;51.464;6.968;2024-03-22T06:23:35;11.30;99.90
22288;DHT22;11312;51.464;6.968;2024-03-22T06:26:01;11.60;99.90
22288;DHT22;11312;51.464;6.968;2024-03-22T06:28:28;11.80;99.90
22288;DHT22;11312;51.464;6.968;2024-03-22T06:30:53;11.70;99.90
22288;DHT22;11312;51.464;6.968;2024-03-22T06:33:20;11.80;99.90
22288;DHT22;11312;51.464;6.968;2024-03-22T06:35:47;11.80;99.90
22288;DHT22;11312;51.464;6.968;2024-03-22T06:38:13;11.80;99.90
22288;DHT22;11312;51.464;6.968;2024-03-22T06:40:39;11.90;99.90
22288;DHT22;11312;51.464;6.968;2024-03-22T06:43:04;11.80;99.90
22288;DHT22;11312;51.464;6.968;2024-03-22T06:45:30;11.90;99.90
22288;DHT22;11312;51.464;6.968;2024-03-22T06:47:55;12.00;99.90
22288;DHT22;11312;51.464;6.968;2024-03-22T06:50:21;12.00;99.90
22288;DHT22;11312;51.464;6.968;2024-03-22T06:52:55;12.00;99.90
22288;DHT22;11312;51.464;6.968;2024-03-22T06:55:21;12.00;99.90
22288;DHT22;11312;51.464;6.968;2024-03-22T06:57:50;12.10;99.90
22288;DHT22;11312;51.464;6.968;2024-03-22T07:00:19;12.10;99.90
22288;DHT22;11312;51.464;6.968;2024-03-22T07:02:44;12.30;99.90
22288;DHT22;11312;51.464;6.968;2024-03-22T07:05:10;12.20;99.90
22288;DHT22;11312;51.464;6.968;2024-03-22T07:07:37;12.40;99.90
22288;DHT22;11312;51.464;6.968;2024-03-22T07:10:03;12.50;99.90
22288;DHT22;11312;51.464;6.968;2024-03-22T07:12:29;12.70;99.90
22288;DHT22;11312;51.464;6.968;2024-03-22T07:14:59;12.90;99.90
22288;DHT22;11312;51.464;6.968;2024-03-22T07:17:25;13.10;99.90
22288;DHT22;11312;51.464;6.968;2024-03-22T07:19:51;13.00;99.90
22288;DHT22;11312;51.464;6.968;2024-03-22T07:22:20;13.20;99.90
22288;DHT22;11312;51.464;6.968;2024-03-22T07:24:46;13.40;99.90
22288;DHT22;11312;51.464;6.968;2024-03-22T07:27:16;13.20;99.90
22288;DHT22;11312;51.464;6.968;2024-03-22T07:29:44;13.40;99.90
22288;DHT22;11312;51.464;6.968;2024-03-22T07:32:10;13.40;99.90
22288;DHT22;11312;51.464;6.968;2024-03-22T07:34:36;13.40;99.90
22288;DHT22;11312;51.464;6.968;2024-03-22T07:37:01;13.40;99.90
22288;DHT22;11312;51.464;6.968;2024-03-22T07:39:29;13.50;99.90
22288;DHT22;11312;51.464;6.968;2024-03-22T07:41:55;13.70;99.90
22288;DHT22;11312;51.464;6.968;2024-03-22T07:44:21;13.70;99.90
22288;DHT22;11312;51.464;6.968;2024-03-22T07:46:49;13.20;99.90
22288;DHT22;11312;51.464;6.968;2024-03-22T07:49:15;13.40;99.90
22288;DHT22;11312;51.464;6.968;2024-03-22T07:51:40;13.40;99.90
22288;DHT22;11312;51.464;6.968;2024-03-22T07:54:06;13.40;99.90
22288;DHT22;11312;51.464;6.968;2024-03-22T07:56:31;13.50;99.90
22288;DHT22;11312;51.464;6.968;2024-03-22T07:58:57;13.40;99.90
22288;DHT22;11312;51.464;6.968;2024-03-22T08:01:24;13.60;99.90
22288;DHT22;11312;51.464;6.968;2024-03-22T08:03:51;13.50;99.90
22288;DHT22;11312;51.464;6.968;2024-03-22T08:06:17;13.60;99.90
22288;DHT22;11312;51.464;6.968;2024-03-22T08:08:43;13.80;99.90
22288;DHT22;11312;51.464;6.968;2024-03-22T08:11:09;13.80;99.90
22288;DHT22;11312;51.464;6.968;2024-03-22T08:13:35;13.80;99.90
22288;DHT22;11312;51.464;6.968;2024-03-22T08:16:00;13.90;99.90
22288;DHT22;11312;51.464;6.968;2024-03-22T08:18:26;14.00;99.90
22288;DHT22;11312;51.464;6.968;2024-03-22T08:20:52;14.00;99.90
22288;DHT22;11312;51.464;6.968;2024-03-22T08:23:17;14.10;99.90
22288;DHT22;11312;51.464;6.968;2024-03-22T08:25:46;14.10;99.90
22288;DHT22;11312;51.464;6.968;2024-03-22T08:28:11;14.00;99.90
22288;DHT22;11312;51.464;6.968;2024-03-22T08:30:39;14.00;99.90
22288;DHT22;11312;51.464;6.968;2024-03-22T08:33:05;14.00;99.90
22288;DHT22;11312;51.464;6.968;2024-03-22T08:35:30;13.90;99.90
22288;DHT22;11312;51.464;6.968;2024-03-22T08:37:56;13.90;99.90
22288;DHT22;11312;51.464;6.968;2024-03-22T08:40:22;14.40;99.90
22288;DHT22;11312;51.464;6.968;2024-03-22T08:42:48;15.80;99.90
22288;DHT22;11312;51.464;6.968;2024-03-22T08:45:14;16.60;99.90
22288;DHT22;11312;51.464;6.968;2024-03-22T08:47:42;15.70;99.90
22288;DHT22;11312;51.464;6.968;2024-03-22T08:50:08;15.60;99.90
22288;DHT22;11312;51.464;6.968;2024-03-22T08:52:35;15.50;99.90
22288;DHT22;11312;51.464;6.968;2024-03-22T08:55:01;14.70;99.90
22288;DHT22;11312;51.464;6.968;2024-03-22T08:57:27;15.00;99.90
22288;DHT22;11312;51.464;6.968;2024-03-22T08:59:52;15.20;99.90
22288;DHT22;11312;51.464;6.968;2024-03-22T09:02:18;15.30;99.90
22288;DHT22;11312;51.464;6.968;2024-03-22T09:04:43;15.10;99.90
22288;DHT22;11312;51.464;6.968;2024-03-22T09:07:09;14.50;99.90
22288;DHT22;11312;51.464;6.968;2024-03-22T09:09:35;14.70;99.90
22288;DHT22;11312;51.464;6.968;2024-03-22T09:12:00;14.60;99.90
22288;DHT22;11312;51.464;6.968;2024-03-22T09:14:26;14.70;99.90
22288;DHT22;11312;51.464;6.968;2024-03-22T09:16:52;14.90;99.90
22288;DHT22;11312;51.464;6.968;2024-03-22T09:19:17;15.20;99.90
22288;DHT22;11312;51.464;6.968;2024-03-22T09:21:43;15.20;99.90
22288;DHT22;11312;51.464;6.968;2024-03-22T09:24:09;15.10;99.90
22288;DHT22;11312;51.464;6.968;2024-03-22T09:26:35;15.70;98.80
22288;DHT22;11312;51.464;6.968;2024-03-22T09:29:00;16.50;99.00
22288;DHT22;11312;51.464;6.968;2024-03-22T09:31:26;16.40;99.90
22288;DHT22;11312;51.464;6.968;2024-03-22T09:33:54;16.10;99.90
22288;DHT22;11312;51.464;6.968;2024-03-22T09:36:20;15.80;99.90
22288;DHT22;11312;51.464;6.968;2024-03-22T09:38:46;16.00;99.90
22288;DHT22;11312;51.464;6.968;2024-03-22T09:41:14;15.70;99.90
22288;DHT22;11312;51.464;6.968;2024-03-22T09:43:39;15.50;99.90
22288;DHT22;11312;51.464;6.968;2024-03-22T09:46:06;15.60;98.60
22288;DHT22;11312;51.464;6.968;2024-03-22T09:48:33;15.30;98.40
22288;DHT22;11312;51.464;6.968;2024-03-22T09:51:00;15.40;98.10
22288;DHT22;11312;51.464;6.968;2024-03-22T09:53:30;15.10;98.40
22288;DHT22;11312;51.464;6.968;2024-03-22T09:55:58;15.30;99.90
22288;DHT22;11312;51.464;6.968;2024-03-22T09:58:24;15.10;99.90
22288;DHT22;11312;51.464;6.968;2024-03-22T10:00:50;15.10;99.90
22288;DHT22;11312;51.464;6.968;2024-03-22T10:03:16;15.30;99.90
22288;DHT22;11312;51.464;6.968;2024-03-22T10:05:42;15.30;99.90
22288;DHT22;11312;51.464;6.968;2024-03-22T10:08:07;15.20;98.30
22288;DHT22;11312;51.464;6.968;2024-03-22T10:10:33;15.30;99.90
22288;DHT22;11312;51.464;6.968;2024-03-22T10:13:03;15.30;99.90
22288;DHT22;11312;51.464;6.968;2024-03-22T10:15:30;15.40;99.90
22288;DHT22;11312;51.464;6.968;2024-03-22T10:17:57;15.30;99.90
22288;DHT22;11312;51.464;6.968;2024-03-22T10:20:23;15.30;99.50
22288;DHT22;11312;51.464;6.968;2024-03-22T10:22:53;15.40;99.90
22288;DHT22;11312;51.464;6.968;2024-03-22T10:25:20;15.80;99.40
22288;DHT22;11312;51.464;6.968;2024-03-22T10:27:47;15.80;99.90
22288;DHT22;11312;51.464;6.968;2024-03-22T10:30:16;15.70;99.40
22288;DHT22;11312;51.464;6.968;2024-03-22T10:32:43;15.70;99.90
22288;DHT22;11312;51.464;6.968;2024-03-22T10:35:12;15.70;99.90
22288;DHT22;11312;51.464;6.968;2024-03-22T10:37:39;15.70;99.90
22288;DHT22;11312;51.464;6.968;2024-03-22T10:40:05;16.00;99.90
22288;DHT22;11312;51.464;6.968;2024-03-22T10:42:41;15.90;99.90
22288;DHT22;11312;51.464;6.968;2024-03-22T10:45:09;15.90;99.90
22288;DHT22;11312;51.464;6.968;2024-03-22T10:47:36;16.00;99.90
22288;DHT22;11312;51.464;6.968;2024-03-22T10:50:12;16.20;99.70
22288;DHT22;11312;51.464;6.968;2024-03-22T10:52:46;15.90;99.80
22288;DHT22;11312;51.464;6.968;2024-03-22T10:55:43;15.70;99.90
22288;DHT22;11312;51.464;6.968;2024-03-22T10:58:17;16.10;99.90
22288;DHT22;11312;51.464;6.968;2024-03-22T11:00:43;16.40;99.90
22288;DHT22;11312;51.464;6.968;2024-03-22T11:03:09;16.90;99.90
22288;DHT22;11312;51.464;6.968;2024-03-22T11:05:47;17.20;99.90
22288;DHT22;11312;51.464;6.968;2024-03-22T11:08:13;17.20;99.90
22288;DHT22;11312;51.464;6.968;2024-03-22T11:10:48;17.00;99.90
22288;DHT22;11312;51.464;6.968;2024-03-22T11:13:16;16.70;99.90
22288;DHT22;11312;51.464;6.968;2024-03-22T11:15:42;16.20;99.90
22288;DHT22;11312;51.464;6.968;2024-03-22T11:18:08;16.00;99.90
22288;DHT22;11312;51.464;6.968;2024-03-22T11:20:37;16.00;99.90
22288;DHT22;11312;51.464;6.968;2024-03-22T11:23:07;16.20;99.90
22288;DHT22;11312;51.464;6.968;2024-03-22T11:25:33;16.40;99.90
22288;DHT22;11312;51.464;6.968;2024-03-22T11:28:00;16.40;99.90
22288;DHT22;11312;51.464;6.968;2024-03-22T11:30:32;16.10;99.90
22288;DHT22;11312;51.464;6.968;2024-03-22T11:33:04;16.20;99.90
22288;DHT22;11312;51.464;6.968;2024-03-22T11:35:31;16.00;99.90
22288;DHT22;11312;51.464;6.968;2024-03-22T11:37:57;15.80;99.90
22288;DHT22;11312;51.464;6.968;2024-03-22T11:40:27;15.80;99.90
22288;DHT22;11312;51.464;6.968;2024-03-22T11:42:54;15.70;99.90
22288;DHT22;11312;51.464;6.968;2024-03-22T11:45:21;15.60;99.90
22288;DHT22;11312;51.464;6.968;2024-03-22T11:47:49;15.40;99.90
22288;DHT22;11312;51.464;6.968;2024-03-22T11:50:16;15.40;99.90
22288;DHT22;11312;51.464;6.968;2024-03-22T11:52:42;15.40;99.90
22288;DHT22;11312;51.464;6.968;2024-03-22T11:55:09;15.00;99.90
22288;DHT22;11312;51.464;6.968;2024-03-22T11:57:35;14.70;99.90
22288;DHT22;11312;51.464;6.968;2024-03-22T12:00:02;14.90;99.90
22288;DHT22;11312;51.464;6.968;2024-03-22T12:02:32;14.80;99.90
22288;DHT22;11312;51.464;6.968;2024-03-22T12:05:00;14.70;99.90
22288;DHT22;11312;51.464;6.968;2024-03-22T12:07:26;14.80;99.90
22288;DHT22;11312;51.464;6.968;2024-03-22T12:09:51;14.80;99.90
22288;DHT22;11312;51.464;6.968;2024-03-22T12:12:17;14.60;99.90
22288;DHT22;11312;51.464;6.968;2024-03-22T12:14:46;14.70;99.90
22288;DHT22;11312;51.464;6.968;2024-03-22T12:17:12;14.50;99.90
22288;DHT22;11312;51.464;6.968;2024-03-22T12:19:37;14.30;99.90
22288;DHT22;11312;51.464;6.968;2024-03-22T12:22:03;14.20;99.90
22288;DHT22;11312;51.464;6.968;2024-03-22T12:24:32;14.10;99.90
22288;DHT22;11312;51.464;6.968;2024-03-22T12:26:58;14.10;99.90
22288;DHT22;11312;51.464;6.968;2024-03-22T12:29:23;14.20;99.90
22288;DHT22;11312;51.464;6.968;2024-03-22T12:31:49;14.20;99.90
22288;DHT22;11312;51.464;6.968;2024-03-22T12:34:15;14.20;99.90
22288;DHT22;11312;51.464;6.968;2024-03-22T12:36:41;14.00;99.90
22288;DHT22;11312;51.464;6.968;2024-03-22T12:39:06;14.00;99.90
22288;DHT22;11312;51.464;6.968;2024-03-22T12:41:33;13.90;99.90
22288;DHT22;11312;51.464;6.968;2024-03-22T12:43:59;13.80;99.90
22288;DHT22;11312;51.464;6.968;2024-03-22T12:46:26;13.90;99.90
22288;DHT22;11312;51.464;6.968;2024-03-22T12:48:52;13.70;99.90
22288;DHT22;11312;51.464;6.968;2024-03-22T12:51:18;13.70;99.90
22288;DHT22;11312;51.464;6.968;2024-03-22T12:53:44;13.80;99.90
22288;DHT22;11312;51.464;6.968;2024-03-22T12:56:11;13.60;99.90
22288;DHT22;11312;51.464;6.968;2024-03-22T12:58:37;13.50;99.90
22288;DHT22;11312;51.464;6.968;2024-03-22T13:01:04;13.50;99.90
22288;DHT22;11312;51.464;6.968;2024-03-22T13:03:32;13.60;99.90
22288;DHT22;11312;51.464;6.968;2024-03-22T13:05:57;13.40;99.90
22288;DHT22;11312;51.464;6.968;2024-03-22T13:08:24;13.30;99.90
22288;DHT22;11312;51.464;6.968;2024-03-22T13:10:51;13.40;99.90
22288;DHT22;11312;51.464;6.968;2024-03-22T13:13:18;13.50;99.90
22288;DHT22;11312;51.464;6.968;2024-03-22T13:15:43;13.40;99.90
22288;DHT22;11312;51.464;6.968;2024-03-22T13:18:09;13.20;99.90
22288;DHT22;11312;51.464;6.968;2024-03-22T13:20:35;13.10;99.90
22288;DHT22;11312;51.464;6.968;2024-03-22T13:23:02;13.10;99.90
22288;DHT22;11312;51.464;6.968;2024-03-22T13:25:27;13.10;99.90
22288;DHT22;11312;51.464;6.968;2024-03-22T13:27:53;13.20;99.90
22288;DHT22;11312;51.464;6.968;2024-03-22T13:30:20;13.20;99.90
22288;DHT22;11312;51.464;6.968;2024-03-22T13:32:46;13.10;99.90
22288;DHT22;11312;51.464;6.968;2024-03-22T13:35:11;13.10;99.90
22288;DHT22;11312;51.464;6.968;2024-03-22T13:37:38;13.00;99.90
22288;DHT22;11312;51.464;6.968;2024-03-22T13:40:04;12.90;99.90
22288;DHT22;11312;51.464;6.968;2024-03-22T13:42:30;13.00;99.90
22288;DHT22;11312;51.464;6.968;2024-03-22T13:44:56;13.00;99.90
22288;DHT22;11312;51.464;6.968;2024-03-22T13:47:22;12.90;99.90
22288;DHT22;11312;51.464;6.968;2024-03-22T13:49:48;12.90;99.90
22288;DHT22;11312;51.464;6.968;2024-03-22T13:52:14;13.10;99.90
22288;DHT22;11312;51.464;6.968;2024-03-22T13:54:40;13.30;99.90
22288;DHT22;11312;51.464;6.968;2024-03-22T13:57:06;15.30;99.90
22288;DHT22;11312;51.464;6.968;2024-03-22T13:59:31;16.50;99.90
22288;DHT22;11312;51.464;6.968;2024-03-22T14:01:57;17.10;99.90
22288;DHT22;11312;51.464;6.968;2024-03-22T14:04:23;16.90;99.90
22288;DHT22;11312;51.464;6.968;2024-03-22T14:06:49;16.90;99.90
22288;DHT22;11312;51.464;6.968;2024-03-22T14:09:15;15.00;99.90
22288;DHT22;11312;51.464;6.968;2024-03-22T14:11:41;13.90;99.90
22288;DHT22;11312;51.464;6.968;2024-03-22T14:14:09;13.50;99.90
22288;DHT22;11312;51.464;6.968;2024-03-22T14:16:39;13.40;99.90
22288;DHT22;11312;51.464;6.968;2024-03-22T14:19:04;13.30;99.90
22288;DHT22;11312;51.464;6.968;2024-03-22T14:21:30;13.10;99.90
22288;DHT22;11312;51.464;6.968;2024-03-22T14:23:56;13.10;99.90
22288;DHT22;11312;51.464;6.968;2024-03-22T14:26:21;13.00;99.90
22288;DHT22;11312;51.464;6.968;2024-03-22T14:28:49;12.90;99.90
22288;DHT22;11312;51.464;6.968;2024-03-22T14:31:15;13.00;99.90
22288;DHT22;11312;51.464;6.968;2024-03-22T14:33:41;12.90;99.90
22288;DHT22;11312;51.464;6.968;2024-03-22T14:36:07;12.90;99.90
22288;DHT22;11312;51.464;6.968;2024-03-22T14:38:35;12.80;99.90
22288;DHT22;11312;51.464;6.968;2024-03-22T14:41:00;12.70;99.90
22288;DHT22;11312;51.464;6.968;2024-03-22T14:43:27;12.80;99.90
22288;DHT22;11312;51.464;6.968;2024-03-22T14:45:55;12.80;99.90
22288;DHT22;11312;51.464;6.968;2024-03-22T14:48:22;12.80;99.90
22288;DHT22;11312;51.464;6.968;2024-03-22T14:50:48;12.50;99.90
22288;DHT22;11312;51.464;6.968;2024-03-22T14:53:14;12.40;99.90
22288;DHT22;11312;51.464;6.968;2024-03-22T14:55:56;12.50;99.90
22288;DHT22;11312;51.464;6.968;2024-03-22T14:58:33;12.30;99.90
22288;DHT22;11312;51.464;6.968;2024-03-22T15:01:01;12.20;99.90
22288;DHT22;11312;51.464;6.968;2024-03-22T15:03:27;12.30;99.90
22288;DHT22;11312;51.464;6.968;2024-03-22T15:05:54;12.30;99.90
22288;DHT22;11312;51.464;6.968;2024-03-22T15:08:20;12.30;99.90
22288;DHT22;11312;51.464;6.968;2024-03-22T15:10:47;12.30;99.90
22288;DHT22;11312;51.464;6.968;2024-03-22T15:13:13;12.50;99.90
22288;DHT22;11312;51.464;6.968;2024-03-22T15:15:39;12.50;99.90
22288;DHT22;11312;51.464;6.968;2024-03-22T15:18:06;12.50;99.90
22288;DHT22;11312;51.464;6.968;2024-03-22T15:20:32;12.40;99.90
22288;DHT22;11312;51.464;6.968;2024-03-22T15:22:58;12.60;99.90
22288;DHT22;11312;51.464;6.968;2024-03-22T15:25:24;12.60;99.90